createdAt,value
2022-12-22T00:00:28.931Z,7.42
2022-12-22T00:01:28.926Z,7.50
2022-12-22T00:02:29.030Z,7.53
2022-12-22T00:03:28.919Z,7.54
2022-12-22T00:04:28.793Z,7.56
2022-12-22T00:05:28.819Z,7.61
2022-12-22T00:06:28.758Z,7.56
2022-12-22T00:07:28.678Z,7.57
2022-12-22T00:08:28.654Z,7.51
2022-12-22T00:09:28.638Z,7.54
2022-12-22T00:10:28.595Z,7.53
2022-12-22T00:11:28.624Z,7.56
2022-12-22T00:12:28.512Z,7.57
2022-12-22T00:13:28.487Z,7.58
2022-12-22T00:14:28.458Z,7.54
2022-12-22T00:15:28.410Z,7.60
2022-12-22T00:16:28.412Z,7.58
2022-12-22T00:17:28.397Z,7.66
2022-12-22T00:18:28.299Z,7.61
2022-12-22T00:19:28.258Z,7.63
2022-12-22T00:20:28.277Z,7.58
2022-12-22T00:21:28.209Z,7.56
2022-12-22T00:22:28.178Z,7.61
2022-12-22T00:23:28.238Z,7.54
2022-12-22T00:24:28.096Z,7.66
2022-12-22T00:25:28.076Z,7.70
2022-12-22T00:26:28.054Z,7.69
2022-12-22T00:27:28.006Z,7.72
2022-12-22T00:28:27.961Z,7.66
2022-12-22T00:29:28.003Z,7.72
2022-12-22T00:30:27.920Z,7.73
2022-12-22T00:31:27.989Z,7.67
2022-12-22T00:32:27.827Z,7.75
2022-12-22T00:33:27.833Z,7.73
2022-12-22T00:34:32.328Z,7.72
2022-12-22T00:35:27.708Z,7.72
2022-12-22T00:36:27.672Z,7.70
2022-12-22T00:37:27.640Z,7.63
2022-12-22T00:38:27.709Z,7.73
2022-12-22T00:39:27.569Z,7.69
2022-12-22T00:40:27.546Z,7.69
2022-12-22T00:41:27.510Z,7.69
2022-12-22T00:42:27.506Z,7.69
2022-12-22T00:43:27.440Z,7.75
2022-12-22T00:44:27.458Z,7.79
2022-12-22T00:45:27.400Z,7.77
2022-12-22T00:46:27.405Z,7.77
2022-12-22T00:47:27.292Z,7.70
2022-12-22T00:48:27.301Z,7.72
2022-12-22T00:49:27.292Z,7.85
2022-12-22T00:50:27.198Z,7.94
2022-12-22T00:51:27.155Z,7.82
2022-12-22T00:52:27.116Z,7.80
2022-12-22T00:53:27.132Z,7.87
2022-12-22T00:54:27.049Z,7.75
2022-12-22T00:55:27.111Z,7.75
2022-12-22T00:56:26.983Z,7.77
2022-12-22T00:57:26.977Z,7.75
2022-12-22T00:58:26.922Z,7.79
2022-12-22T00:59:26.880Z,7.83
2022-12-22T01:00:26.924Z,7.77
2022-12-22T01:01:26.880Z,7.79
2022-12-22T01:02:27.005Z,7.79
2022-12-22T01:03:26.804Z,7.79
2022-12-22T01:04:26.701Z,7.80
2022-12-22T01:05:26.677Z,7.79
2022-12-22T01:06:26.797Z,7.75
2022-12-22T01:07:26.597Z,7.72
2022-12-22T01:08:26.573Z,7.72
2022-12-22T01:09:26.595Z,7.53
2022-12-22T01:10:26.499Z,7.63
2022-12-22T01:11:26.566Z,7.60
2022-12-22T01:12:26.428Z,7.60
2022-12-22T01:13:26.392Z,7.60
2022-12-22T01:14:26.402Z,7.54
2022-12-22T01:15:26.321Z,7.53
2022-12-22T01:16:26.348Z,7.45
2022-12-22T01:17:26.398Z,7.42
2022-12-22T01:18:34.158Z,7.47
2022-12-22T01:19:26.198Z,7.48
2022-12-22T01:20:26.161Z,7.43
2022-12-22T01:21:26.115Z,7.50
2022-12-22T01:22:26.073Z,7.43
2022-12-22T01:23:26.093Z,7.47
2022-12-22T01:24:26.011Z,7.51
2022-12-22T01:25:25.989Z,7.48
2022-12-22T01:26:25.935Z,7.48
2022-12-22T01:27:26.767Z,7.47
2022-12-22T01:28:25.863Z,7.47
2022-12-22T01:29:25.908Z,7.43
2022-12-22T01:30:25.813Z,7.33
2022-12-22T01:31:25.816Z,7.36
2022-12-22T01:32:25.733Z,7.38
2022-12-22T01:33:25.697Z,7.32
2022-12-22T01:34:25.736Z,7.39
2022-12-22T01:35:25.623Z,7.42
2022-12-22T01:36:25.605Z,7.36
2022-12-22T01:37:25.561Z,7.36
2022-12-22T01:38:26.032Z,7.38
2022-12-22T01:39:25.554Z,7.43
2022-12-22T01:40:25.447Z,7.36
2022-12-22T01:41:25.409Z,7.39
2022-12-22T01:42:25.377Z,7.33
2022-12-22T01:43:25.350Z,7.33
2022-12-22T01:44:25.315Z,7.24
2022-12-22T01:45:25.339Z,7.33
2022-12-22T01:46:25.276Z,7.28
2022-12-22T01:47:25.211Z,7.21
2022-12-22T01:48:25.178Z,7.24
2022-12-22T01:49:25.138Z,7.21
2022-12-22T01:50:32.024Z,7.15
2022-12-22T01:51:25.061Z,7.13
2022-12-22T01:52:25.042Z,7.18
2022-12-22T01:53:24.999Z,7.15
2022-12-22T01:54:24.960Z,7.29
2022-12-22T01:55:24.938Z,7.21
2022-12-22T01:56:24.962Z,7.25
2022-12-22T01:57:24.865Z,7.25
2022-12-22T01:58:25.524Z,7.23
2022-12-22T01:59:24.829Z,7.21
2022-12-22T02:00:24.747Z,7.25
2022-12-22T02:01:24.778Z,7.25
2022-12-22T02:02:24.874Z,7.29
2022-12-22T02:03:24.670Z,7.25
2022-12-22T02:04:25.525Z,7.25
2022-12-22T02:05:24.587Z,7.35
2022-12-22T02:06:24.556Z,7.32
2022-12-22T02:07:24.517Z,7.31
2022-12-22T02:08:24.750Z,7.24
2022-12-22T02:09:25.138Z,7.24
2022-12-22T02:10:24.404Z,7.36
2022-12-22T02:11:25.137Z,7.39
2022-12-22T02:12:24.327Z,7.36
2022-12-22T02:13:24.353Z,7.33
2022-12-22T02:14:29.740Z,7.35
2022-12-22T02:15:24.346Z,7.38
2022-12-22T02:16:24.283Z,7.35
2022-12-22T02:17:26.031Z,7.39
2022-12-22T02:18:24.321Z,7.39
2022-12-22T02:19:24.138Z,7.28
2022-12-22T02:20:24.061Z,7.31
2022-12-22T02:21:24.032Z,7.33
2022-12-22T02:22:23.992Z,7.40
2022-12-22T02:23:24.028Z,7.39
2022-12-22T02:24:23.928Z,7.47
2022-12-22T02:25:23.910Z,7.45
2022-12-22T02:26:23.840Z,7.45
2022-12-22T02:27:23.820Z,7.43
2022-12-22T02:28:23.778Z,7.43
2022-12-22T02:29:23.826Z,7.47
2022-12-22T02:30:23.707Z,7.42
2022-12-22T02:31:23.725Z,7.36
2022-12-22T02:32:23.636Z,7.42
2022-12-22T02:33:23.599Z,7.42
2022-12-22T02:34:23.631Z,7.43
2022-12-22T02:35:23.536Z,7.39
2022-12-22T02:36:23.501Z,7.42
2022-12-22T02:37:23.466Z,7.39
2022-12-22T02:38:23.429Z,7.36
2022-12-22T02:39:23.461Z,7.47
2022-12-22T02:40:23.361Z,7.43
2022-12-22T02:41:23.324Z,7.50
2022-12-22T02:42:23.303Z,7.48
2022-12-22T02:43:23.255Z,7.50
2022-12-22T02:44:23.273Z,7.45
2022-12-22T02:45:23.187Z,7.48
2022-12-22T02:46:23.189Z,7.50
2022-12-22T02:47:23.109Z,7.50
2022-12-22T02:48:23.125Z,7.48
2022-12-22T02:49:23.125Z,7.57
2022-12-22T02:50:23.012Z,7.57
2022-12-22T02:51:22.975Z,7.58
2022-12-22T02:52:22.943Z,7.61
2022-12-22T02:53:22.913Z,7.60
2022-12-22T02:54:22.879Z,7.51
2022-12-22T02:55:22.891Z,7.63
2022-12-22T02:56:22.802Z,7.61
2022-12-22T02:57:22.779Z,7.69
2022-12-22T02:58:22.742Z,7.66
2022-12-22T02:59:22.693Z,7.58
2022-12-22T03:00:22.723Z,7.60
2022-12-22T03:01:22.688Z,7.63
2022-12-22T03:02:22.805Z,7.67
2022-12-22T03:03:22.788Z,7.72
2022-12-22T03:04:22.536Z,7.70
2022-12-22T03:05:22.489Z,7.72
2022-12-22T03:06:22.513Z,7.70
2022-12-22T03:07:22.440Z,7.70
2022-12-22T03:08:22.391Z,7.63
2022-12-22T03:09:22.358Z,7.67
2022-12-22T03:10:22.315Z,7.69
2022-12-22T03:11:22.292Z,7.70
2022-12-22T03:12:22.310Z,7.79
2022-12-22T03:13:22.229Z,7.75
2022-12-22T03:14:22.191Z,7.77
2022-12-22T03:15:22.157Z,7.83
2022-12-22T03:16:24.719Z,7.88
2022-12-22T03:17:22.131Z,7.83
2022-12-22T03:18:22.046Z,7.85
2022-12-22T03:19:22.018Z,7.88
2022-12-22T03:20:21.973Z,7.90
2022-12-22T03:21:21.956Z,7.93
2022-12-22T03:22:21.965Z,7.95
2022-12-22T03:23:21.876Z,7.91
2022-12-22T03:24:21.832Z,8.05
2022-12-22T03:25:21.864Z,8.06
2022-12-22T03:26:21.816Z,8.06
2022-12-22T03:27:21.735Z,8.00
2022-12-22T03:28:21.747Z,7.95
2022-12-22T03:29:22.703Z,8.05
2022-12-22T03:30:21.631Z,8.00
2022-12-22T03:31:21.630Z,8.05
2022-12-22T03:32:21.557Z,8.00
2022-12-22T03:33:21.736Z,8.09
2022-12-22T03:34:21.493Z,7.95
2022-12-22T03:35:22.103Z,8.06
2022-12-22T03:36:21.425Z,8.01
2022-12-22T03:37:22.158Z,8.00
2022-12-22T03:38:21.361Z,8.00
2022-12-22T03:39:21.711Z,8.00
2022-12-22T03:40:21.288Z,7.98
2022-12-22T03:41:22.101Z,8.06
2022-12-22T03:42:21.222Z,8.05
2022-12-22T03:43:22.113Z,8.05
2022-12-22T03:44:21.210Z,7.98
2022-12-22T03:45:21.115Z,7.97
2022-12-22T03:46:21.150Z,7.98
2022-12-22T03:47:21.048Z,8.06
2022-12-22T03:48:21.005Z,7.95
2022-12-22T03:49:20.983Z,8.05
2022-12-22T03:50:20.998Z,7.97
2022-12-22T03:51:20.910Z,8.06
2022-12-22T03:52:20.877Z,7.93
2022-12-22T03:53:20.861Z,8.05
2022-12-22T03:54:20.803Z,8.10
2022-12-22T03:55:20.904Z,7.98
2022-12-22T03:56:20.730Z,8.03
2022-12-22T03:57:20.704Z,8.03
2022-12-22T03:58:20.661Z,7.98
2022-12-22T03:59:20.634Z,8.08
2022-12-22T04:00:20.680Z,8.01
2022-12-22T04:01:20.625Z,8.00
2022-12-22T04:02:20.591Z,8.00
2022-12-22T04:03:20.583Z,8.00
2022-12-22T04:04:20.478Z,8.03
2022-12-22T04:05:20.434Z,7.98
2022-12-22T04:06:21.226Z,8.09
2022-12-22T04:07:20.377Z,8.05
2022-12-22T04:08:20.324Z,8.10
2022-12-22T04:09:20.283Z,8.08
2022-12-22T04:10:20.255Z,8.08
2022-12-22T04:11:20.231Z,8.03
2022-12-22T04:12:20.234Z,7.95
2022-12-22T04:13:20.160Z,8.05
2022-12-22T04:14:20.124Z,8.00
2022-12-22T04:15:20.090Z,7.98
2022-12-22T04:16:20.102Z,7.98
2022-12-22T04:17:20.022Z,7.85
2022-12-22T04:18:20.040Z,7.98
2022-12-22T04:19:19.949Z,7.98
2022-12-22T04:20:19.906Z,8.03
2022-12-22T04:21:19.907Z,8.08
2022-12-22T04:22:20.728Z,8.08
2022-12-22T04:23:19.815Z,7.98
2022-12-22T04:24:19.833Z,8.00
2022-12-22T04:25:19.742Z,7.95
2022-12-22T04:26:19.715Z,7.98
2022-12-22T04:27:19.673Z,8.00
2022-12-22T04:28:19.678Z,8.00
2022-12-22T04:29:19.614Z,7.97
2022-12-22T04:30:19.627Z,8.00
2022-12-22T04:31:19.570Z,8.00
2022-12-22T04:32:20.587Z,8.06
2022-12-22T04:33:19.465Z,7.95
2022-12-22T04:34:19.446Z,7.98
2022-12-22T04:35:19.464Z,8.12
2022-12-22T04:36:19.369Z,8.05
2022-12-22T04:37:19.325Z,8.09
2022-12-22T04:38:19.314Z,8.06
2022-12-22T04:39:19.255Z,8.12
2022-12-22T04:40:19.282Z,8.09
2022-12-22T04:41:19.186Z,8.13
2022-12-22T04:42:19.290Z,8.18
2022-12-22T04:43:19.123Z,8.13
2022-12-22T04:44:19.085Z,8.12
2022-12-22T04:45:19.053Z,8.18
2022-12-22T04:46:19.177Z,8.09
2022-12-22T04:47:18.994Z,8.13
2022-12-22T04:48:18.975Z,8.10
2022-12-22T04:49:18.911Z,8.10
2022-12-22T04:50:18.895Z,8.09
2022-12-22T04:51:18.849Z,8.06
2022-12-22T04:52:18.890Z,8.13
2022-12-22T04:53:18.782Z,8.10
2022-12-22T04:54:18.745Z,8.18
2022-12-22T04:55:18.732Z,8.13
2022-12-22T04:56:18.671Z,8.23
2022-12-22T04:57:18.653Z,8.06
2022-12-22T04:58:19.165Z,8.19
2022-12-22T04:59:18.572Z,8.08
2022-12-22T05:00:18.535Z,8.10
2022-12-22T05:01:18.557Z,8.05
2022-12-22T05:02:18.649Z,8.15
2022-12-22T05:03:18.491Z,8.12
2022-12-22T05:04:23.491Z,8.18
2022-12-22T05:05:18.368Z,8.09
2022-12-22T05:06:18.327Z,8.13
2022-12-22T05:07:18.306Z,8.15
2022-12-22T05:08:19.214Z,8.16
2022-12-22T05:09:18.238Z,8.18
2022-12-22T05:10:18.255Z,8.24
2022-12-22T05:11:18.158Z,8.18
2022-12-22T05:12:18.133Z,8.24
2022-12-22T05:13:18.090Z,8.15
2022-12-22T05:14:18.133Z,8.24
2022-12-22T05:15:18.029Z,8.20
2022-12-22T05:16:18.037Z,8.23
2022-12-22T05:17:17.961Z,8.26
2022-12-22T05:18:17.926Z,8.19
2022-12-22T05:19:17.891Z,8.16
2022-12-22T05:20:18.725Z,8.24
2022-12-22T05:21:17.814Z,8.26
2022-12-22T05:22:17.799Z,8.16
2022-12-22T05:23:17.748Z,8.26
2022-12-22T05:24:17.723Z,8.26
2022-12-22T05:25:17.719Z,8.18
2022-12-22T05:26:20.180Z,8.24
2022-12-22T05:27:17.626Z,8.23
2022-12-22T05:28:17.579Z,8.18
2022-12-22T05:29:17.545Z,8.23
2022-12-22T05:30:17.535Z,8.20
2022-12-22T05:31:17.576Z,8.23
2022-12-22T05:32:17.502Z,8.23
2022-12-22T05:33:17.407Z,8.20
2022-12-22T05:34:17.598Z,8.26
2022-12-22T05:35:17.344Z,8.27
2022-12-22T05:36:17.309Z,8.18
2022-12-22T05:37:17.330Z,8.20
2022-12-22T05:38:17.239Z,8.24
2022-12-22T05:39:17.226Z,8.20
2022-12-22T05:40:17.186Z,8.20
2022-12-22T05:41:17.149Z,8.20
2022-12-22T05:42:17.172Z,8.19
2022-12-22T05:43:17.077Z,8.24
2022-12-22T05:44:17.029Z,8.24
2022-12-22T05:45:16.994Z,8.16
2022-12-22T05:46:16.996Z,8.18
2022-12-22T05:47:16.939Z,8.30
2022-12-22T05:48:21.120Z,8.24
2022-12-22T05:49:16.958Z,8.33
2022-12-22T05:50:16.838Z,8.34
2022-12-22T05:51:16.811Z,8.37
2022-12-22T05:52:16.862Z,8.41
2022-12-22T05:53:16.729Z,8.36
2022-12-22T05:54:16.751Z,8.31
2022-12-22T05:55:16.656Z,8.41
2022-12-22T05:56:16.632Z,8.34
2022-12-22T05:57:16.589Z,8.33
2022-12-22T05:58:16.574Z,8.37
2022-12-22T05:59:17.208Z,8.28
2022-12-22T06:00:16.494Z,8.33
2022-12-22T06:01:16.460Z,8.33
2022-12-22T06:02:16.601Z,8.33
2022-12-22T06:03:16.486Z,8.27
2022-12-22T06:04:16.565Z,8.26
2022-12-22T06:05:16.326Z,8.28
2022-12-22T06:06:16.287Z,8.38
2022-12-22T06:07:16.249Z,8.31
2022-12-22T06:08:16.218Z,8.37
2022-12-22T06:09:16.181Z,8.37
2022-12-22T06:10:16.196Z,8.38
2022-12-22T06:11:16.117Z,8.33
2022-12-22T06:12:16.075Z,8.30
2022-12-22T06:13:18.074Z,8.38
2022-12-22T06:14:16.023Z,8.33
2022-12-22T06:15:16.034Z,8.41
2022-12-22T06:16:15.970Z,8.30
2022-12-22T06:17:16.627Z,8.45
2022-12-22T06:18:15.875Z,8.31
2022-12-22T06:19:15.838Z,8.44
2022-12-22T06:20:15.818Z,8.41
2022-12-22T06:21:15.846Z,8.51
2022-12-22T06:22:15.736Z,8.48
2022-12-22T06:23:15.715Z,8.41
2022-12-22T06:24:15.674Z,8.45
2022-12-22T06:25:18.543Z,8.42
2022-12-22T06:26:15.604Z,8.48
2022-12-22T06:27:15.618Z,8.37
2022-12-22T06:28:15.534Z,8.48
2022-12-22T06:29:15.500Z,8.45
2022-12-22T06:30:15.488Z,8.49
2022-12-22T06:31:15.514Z,8.38
2022-12-22T06:32:15.391Z,8.51
2022-12-22T06:33:15.858Z,8.34
2022-12-22T06:34:15.332Z,8.52
2022-12-22T06:35:15.293Z,8.37
2022-12-22T06:36:15.317Z,8.45
2022-12-22T06:37:15.226Z,8.45
2022-12-22T06:38:15.692Z,8.53
2022-12-22T06:39:16.186Z,8.48
2022-12-22T06:40:15.129Z,8.38
2022-12-22T06:41:15.124Z,8.49
2022-12-22T06:42:15.064Z,8.48
2022-12-22T06:43:15.618Z,8.41
2022-12-22T06:44:14.985Z,8.46
2022-12-22T06:45:15.013Z,8.46
2022-12-22T06:46:15.727Z,8.51
2022-12-22T06:47:14.999Z,8.53
2022-12-22T06:48:14.854Z,8.55
2022-12-22T06:49:14.816Z,8.61
2022-12-22T06:50:14.818Z,8.60
2022-12-22T06:51:14.808Z,8.58
2022-12-22T06:52:14.720Z,8.60
2022-12-22T06:53:14.882Z,8.66
2022-12-22T06:54:14.645Z,8.63
2022-12-22T06:55:14.606Z,8.61
2022-12-22T06:56:14.745Z,8.64
2022-12-22T06:57:14.603Z,8.66
2022-12-22T06:58:14.516Z,8.67
2022-12-22T06:59:14.479Z,8.69
2022-12-22T07:00:14.439Z,8.66
2022-12-22T07:01:14.504Z,8.64
2022-12-22T07:02:14.575Z,8.64
2022-12-22T07:03:14.707Z,8.58
2022-12-22T07:04:14.370Z,8.60
2022-12-22T07:05:14.300Z,8.67
2022-12-22T07:06:14.242Z,8.60
2022-12-22T07:07:14.203Z,8.69
2022-12-22T07:08:14.182Z,8.58
2022-12-22T07:09:14.209Z,8.55
2022-12-22T07:10:14.100Z,8.56
2022-12-22T07:11:14.105Z,8.56
2022-12-22T07:12:15.600Z,8.53
2022-12-22T07:13:14.013Z,8.58
2022-12-22T07:14:13.980Z,8.60
2022-12-22T07:15:14.033Z,8.61
2022-12-22T07:16:13.933Z,8.66
2022-12-22T07:17:13.999Z,8.66
2022-12-22T07:18:13.834Z,8.63
2022-12-22T07:19:23.231Z,8.69
2022-12-22T07:20:13.824Z,8.66
2022-12-22T07:21:13.776Z,8.64
2022-12-22T07:22:13.758Z,8.66
2022-12-22T07:23:13.686Z,8.63
2022-12-22T07:24:13.690Z,8.67
2022-12-22T07:25:13.589Z,8.69
2022-12-22T07:26:13.562Z,8.71
2022-12-22T07:27:13.528Z,8.66
2022-12-22T07:28:16.691Z,8.81
2022-12-22T07:29:13.524Z,8.79
2022-12-22T07:30:13.415Z,8.70
2022-12-22T07:31:13.394Z,8.82
2022-12-22T07:32:13.356Z,8.69
2022-12-22T07:33:13.323Z,8.71
2022-12-22T07:34:13.289Z,8.81
2022-12-22T07:35:13.324Z,8.87
2022-12-22T07:36:13.240Z,8.87
2022-12-22T07:37:13.192Z,8.82
2022-12-22T07:38:13.233Z,8.84
2022-12-22T07:39:13.123Z,8.84
2022-12-22T07:40:13.093Z,8.82
2022-12-22T07:41:13.102Z,8.88
2022-12-22T07:42:13.008Z,8.94
2022-12-22T07:43:12.996Z,8.91
2022-12-22T07:44:12.985Z,8.92
2022-12-22T07:45:12.906Z,8.95
2022-12-22T07:46:12.909Z,8.97
2022-12-22T07:47:12.889Z,9.02
2022-12-22T07:48:12.809Z,9.00
2022-12-22T07:49:12.785Z,9.04
2022-12-22T07:50:12.745Z,8.97
2022-12-22T07:51:12.710Z,8.94
2022-12-22T07:52:12.679Z,8.95
2022-12-22T07:53:12.708Z,8.94
2022-12-22T07:54:12.606Z,8.95
2022-12-22T07:55:12.615Z,8.97
2022-12-22T07:56:12.547Z,9.02
2022-12-22T07:57:12.512Z,9.02
2022-12-22T07:58:12.475Z,8.92
2022-12-22T07:59:12.484Z,8.97
2022-12-22T08:00:12.395Z,8.97
2022-12-22T08:01:12.374Z,9.04
2022-12-22T08:02:12.469Z,8.99
2022-12-22T08:03:12.363Z,8.97
2022-12-22T08:04:12.338Z,9.02
2022-12-22T08:05:12.270Z,9.00
2022-12-22T08:06:12.201Z,9.03
2022-12-22T08:07:12.173Z,9.03
2022-12-22T08:08:12.134Z,9.00
2022-12-22T08:09:12.107Z,9.00
2022-12-22T08:10:12.121Z,9.06
2022-12-22T08:11:12.054Z,9.08
2022-12-22T08:12:11.997Z,9.13
2022-12-22T08:13:12.024Z,9.13
2022-12-22T08:14:11.927Z,9.25
2022-12-22T08:15:11.897Z,9.14
2022-12-22T08:16:11.961Z,9.19
2022-12-22T08:17:11.836Z,9.18
2022-12-22T08:18:11.800Z,9.16
2022-12-22T08:19:11.764Z,9.23
2022-12-22T08:20:11.743Z,9.22
2022-12-22T08:21:11.691Z,9.23
2022-12-22T08:22:11.722Z,9.23
2022-12-22T08:23:11.622Z,9.25
2022-12-22T08:24:11.587Z,9.25
2022-12-22T08:25:11.554Z,9.19
2022-12-22T08:26:11.517Z,9.26
2022-12-22T08:27:11.494Z,9.23
2022-12-22T08:28:11.525Z,9.28
2022-12-22T08:29:11.423Z,9.22
2022-12-22T08:30:11.395Z,9.22
2022-12-22T08:31:11.431Z,9.28
2022-12-22T08:32:11.369Z,9.32
2022-12-22T08:33:11.285Z,9.28
2022-12-22T08:34:11.317Z,9.28
2022-12-22T08:35:11.248Z,9.25
2022-12-22T08:36:11.203Z,9.32
2022-12-22T08:37:11.163Z,9.32
2022-12-22T08:38:11.117Z,9.28
2022-12-22T08:39:11.088Z,9.31
2022-12-22T08:40:11.164Z,9.32
2022-12-22T08:41:11.021Z,9.37
2022-12-22T08:42:10.988Z,9.36
2022-12-22T08:43:10.957Z,9.41
2022-12-22T08:44:10.913Z,9.39
2022-12-22T08:45:10.883Z,9.40
2022-12-22T08:46:10.918Z,9.40
2022-12-22T08:47:16.686Z,9.44
2022-12-22T08:48:10.781Z,9.41
2022-12-22T08:49:10.753Z,9.43
2022-12-22T08:50:10.744Z,9.41
2022-12-22T08:51:10.684Z,9.40
2022-12-22T08:52:17.754Z,9.43
2022-12-22T08:53:29.753Z,9.41
2022-12-22T08:54:10.589Z,9.48
2022-12-22T08:55:10.553Z,9.47
2022-12-22T08:56:10.527Z,9.43
2022-12-22T08:57:10.493Z,9.37
2022-12-22T08:58:10.513Z,9.37
2022-12-22T08:59:10.427Z,9.40
2022-12-22T09:00:10.448Z,9.36
2022-12-22T09:01:10.379Z,9.40
2022-12-22T09:02:10.408Z,9.41
2022-12-22T09:03:10.654Z,9.37
2022-12-22T09:04:10.318Z,9.41
2022-12-22T09:05:10.229Z,9.46
2022-12-22T09:06:10.206Z,9.40
2022-12-22T09:07:10.651Z,9.41
2022-12-22T09:08:10.114Z,9.39
2022-12-22T09:09:10.105Z,9.40
2022-12-22T09:10:10.158Z,9.39
2022-12-22T09:11:10.017Z,9.40
2022-12-22T09:12:09.979Z,9.43
2022-12-22T09:13:09.951Z,9.44
2022-12-22T09:14:09.911Z,9.41
2022-12-22T09:15:09.880Z,9.37
2022-12-22T09:16:09.940Z,9.39
2022-12-22T09:17:09.817Z,9.41
2022-12-22T09:18:09.784Z,9.41
2022-12-22T09:19:09.746Z,9.51
2022-12-22T09:20:09.781Z,9.43
2022-12-22T09:21:09.682Z,9.36
2022-12-22T09:22:09.746Z,9.47
2022-12-22T09:23:09.638Z,9.44
2022-12-22T09:24:09.585Z,9.41
2022-12-22T09:25:09.548Z,9.43
2022-12-22T09:26:09.509Z,9.41
2022-12-22T09:27:09.480Z,9.41
2022-12-22T09:28:09.522Z,9.40
2022-12-22T09:29:09.412Z,9.44
2022-12-22T09:30:09.413Z,9.43
2022-12-22T09:31:09.342Z,9.44
2022-12-22T09:32:09.337Z,9.41
2022-12-22T09:33:09.278Z,9.51
2022-12-22T09:34:15.179Z,9.48
2022-12-22T09:35:09.211Z,9.59
2022-12-22T09:36:09.196Z,9.59
2022-12-22T09:37:09.160Z,9.55
2022-12-22T09:38:09.112Z,9.54
2022-12-22T09:39:09.075Z,9.56
2022-12-22T09:40:09.092Z,9.59
2022-12-22T09:41:09.001Z,9.61
2022-12-22T09:42:08.969Z,9.58
2022-12-22T09:43:08.956Z,9.64
2022-12-22T09:44:08.906Z,9.62
2022-12-22T09:45:12.451Z,9.65
2022-12-22T09:46:08.961Z,9.64
2022-12-22T09:47:08.806Z,9.79
2022-12-22T09:48:08.770Z,9.66
2022-12-22T09:49:08.746Z,9.74
2022-12-22T09:50:08.745Z,9.79
2022-12-22T09:51:08.681Z,9.76
2022-12-22T09:52:08.707Z,9.77
2022-12-22T09:53:08.623Z,9.74
2022-12-22T09:54:08.580Z,9.72
2022-12-22T09:55:08.537Z,9.73
2022-12-22T09:56:09.293Z,9.65
2022-12-22T09:57:08.502Z,9.76
2022-12-22T09:58:12.359Z,9.77
2022-12-22T09:59:08.420Z,9.73
2022-12-22T10:00:08.405Z,9.79
2022-12-22T10:01:08.427Z,9.82
2022-12-22T10:02:08.353Z,9.91
2022-12-22T10:03:08.331Z,9.89
2022-12-22T10:04:08.303Z,9.94
2022-12-22T10:05:08.214Z,9.97
2022-12-22T10:06:08.180Z,9.95
2022-12-22T10:07:08.141Z,9.98
2022-12-22T10:08:08.159Z,9.95
2022-12-22T10:09:35.928Z,9.99
2022-12-22T10:10:08.091Z,9.87
2022-12-22T10:11:08.021Z,9.89
2022-12-22T10:12:07.970Z,9.95
2022-12-22T10:13:07.946Z,9.94
2022-12-22T10:14:07.926Z,9.89
2022-12-22T10:15:07.873Z,9.92
2022-12-22T10:16:07.992Z,9.98
2022-12-22T10:17:07.902Z,10.10
2022-12-22T10:18:07.775Z,10.01
2022-12-22T10:19:07.736Z,10.04
2022-12-22T10:20:07.711Z,9.99
2022-12-22T10:21:07.678Z,10.12
2022-12-22T10:22:07.700Z,10.13
2022-12-22T10:23:07.617Z,10.13
2022-12-22T10:24:07.588Z,10.19
2022-12-22T10:25:07.553Z,10.26
2022-12-22T10:27:07.516Z,10.25
2022-12-22T10:28:07.515Z,10.34
2022-12-22T10:29:07.418Z,10.40
2022-12-22T10:30:07.379Z,10.41
2022-12-22T10:31:07.348Z,10.40
2022-12-22T10:32:07.392Z,10.34
2022-12-22T10:33:07.297Z,10.37
2022-12-22T10:34:07.300Z,10.44
2022-12-22T10:35:07.209Z,10.46
2022-12-22T10:36:07.261Z,10.56
2022-12-22T10:37:07.200Z,10.49
2022-12-22T10:38:21.016Z,10.56
2022-12-22T10:39:07.076Z,10.49
2022-12-22T10:40:07.062Z,10.57
2022-12-22T10:41:07.021Z,10.63
2022-12-22T10:42:07.306Z,10.63
2022-12-22T10:43:06.954Z,10.59
2022-12-22T10:44:06.919Z,10.59
2022-12-22T10:45:06.876Z,10.63
2022-12-22T10:46:06.878Z,10.69
2022-12-22T10:47:09.860Z,10.78
2022-12-22T10:48:06.838Z,10.72
2022-12-22T10:49:06.753Z,10.75
2022-12-22T10:50:06.717Z,10.86
2022-12-22T10:51:06.709Z,10.89
2022-12-22T10:52:06.655Z,10.87
2022-12-22T10:53:06.629Z,10.82
2022-12-22T10:54:06.668Z,10.87
2022-12-22T10:55:06.560Z,10.87
2022-12-22T10:56:06.526Z,10.89
2022-12-22T10:57:06.555Z,10.89
2022-12-22T10:58:06.474Z,10.87
2022-12-22T10:59:06.416Z,11.05
2022-12-22T11:00:06.399Z,11.04
2022-12-22T11:01:06.477Z,11.05
2022-12-22T11:02:06.545Z,11.11
2022-12-22T11:03:06.429Z,11.08
2022-12-22T11:04:06.338Z,11.10
2022-12-22T11:05:06.229Z,11.14
2022-12-22T11:06:06.207Z,11.12
2022-12-22T11:07:06.180Z,11.02
2022-12-22T11:08:06.191Z,11.05
2022-12-22T11:09:32.071Z,11.02
2022-12-22T11:10:06.073Z,11.00
2022-12-22T11:11:06.035Z,11.07
2022-12-22T11:12:06.010Z,11.04
2022-12-22T11:13:06.035Z,10.97
2022-12-22T11:14:05.944Z,11.07
2022-12-22T11:15:05.931Z,11.11
2022-12-22T11:16:05.893Z,11.14
2022-12-22T11:17:05.902Z,11.05
2022-12-22T11:18:05.891Z,11.11
2022-12-22T11:19:05.773Z,11.02
2022-12-22T11:20:05.747Z,10.99
2022-12-22T11:21:05.710Z,11.02
2022-12-22T11:22:05.673Z,10.96
2022-12-22T11:23:05.754Z,10.96
2022-12-22T11:24:05.620Z,11.04
2022-12-22T11:25:05.589Z,10.94
2022-12-22T11:26:05.561Z,11.05
2022-12-22T11:27:05.656Z,11.07
2022-12-22T11:28:05.482Z,11.04
2022-12-22T11:29:05.521Z,11.04
2022-12-22T11:30:05.447Z,11.02
2022-12-22T11:31:05.410Z,11.02
2022-12-22T11:32:05.368Z,11.12
2022-12-22T11:33:05.312Z,11.17
2022-12-22T11:34:05.460Z,11.17
2022-12-22T11:35:05.260Z,11.18
2022-12-22T11:36:05.224Z,11.12
2022-12-22T11:37:05.203Z,11.17
2022-12-22T11:38:05.163Z,11.11
2022-12-22T11:39:05.149Z,11.02
2022-12-22T11:40:05.168Z,11.04
2022-12-22T11:41:05.069Z,11.02
2022-12-22T11:42:05.046Z,11.07
2022-12-22T11:43:05.004Z,11.05
2022-12-22T11:44:05.010Z,11.07
2022-12-22T11:45:04.938Z,11.11
2022-12-22T11:46:05.056Z,11.08
2022-12-22T11:47:04.896Z,11.11
2022-12-22T11:48:04.860Z,11.12
2022-12-22T11:49:04.833Z,11.14
2022-12-22T11:50:58.993Z,11.17
2022-12-22T11:51:10.938Z,11.02
2022-12-22T11:52:04.784Z,11.05
2022-12-22T11:53:04.685Z,11.05
2022-12-22T11:54:10.623Z,11.05
2022-12-22T11:55:04.619Z,11.07
2022-12-22T11:56:04.653Z,11.02
2022-12-22T11:57:04.548Z,11.08
2022-12-22T11:58:04.549Z,10.97
2022-12-22T11:59:04.492Z,11.00
2022-12-22T12:00:04.453Z,11.08
2022-12-22T12:01:16.356Z,11.10
2022-12-22T12:02:04.523Z,11.11
2022-12-22T12:03:04.493Z,11.17
2022-12-22T12:04:04.418Z,11.15
2022-12-22T12:05:04.301Z,11.17
2022-12-22T12:06:04.265Z,11.12
2022-12-22T12:07:04.233Z,11.11
2022-12-22T12:08:04.256Z,11.08
2022-12-22T12:09:04.167Z,11.19
2022-12-22T12:10:04.144Z,11.26
2022-12-22T12:11:04.107Z,11.22
2022-12-22T12:12:04.075Z,11.26
2022-12-22T12:13:04.035Z,11.25
2022-12-22T12:14:04.066Z,11.25
2022-12-22T12:15:03.966Z,11.26
2022-12-22T12:16:04.018Z,11.22
2022-12-22T12:17:03.897Z,11.25
2022-12-22T12:18:03.876Z,11.22
2022-12-22T12:19:03.840Z,11.22
2022-12-22T12:20:03.888Z,11.26
2022-12-22T12:21:03.775Z,11.22
2022-12-22T12:22:03.766Z,11.19
2022-12-22T12:23:03.711Z,11.19
2022-12-22T12:24:03.690Z,11.18
2022-12-22T12:25:03.643Z,11.23
2022-12-22T12:26:03.683Z,11.11
2022-12-22T12:27:03.587Z,11.14
2022-12-22T12:28:03.546Z,11.19
2022-12-22T12:29:03.546Z,11.10
2022-12-22T12:31:03.483Z,11.15
2022-12-22T12:32:03.666Z,11.23
2022-12-22T12:33:03.411Z,11.22
2022-12-22T12:34:03.359Z,11.26
2022-12-22T12:35:03.331Z,11.22
2022-12-22T12:36:03.296Z,11.23
2022-12-22T12:37:03.251Z,11.26
2022-12-22T12:38:03.278Z,11.26
2022-12-22T12:39:08.463Z,11.25
2022-12-22T12:40:03.169Z,11.23
2022-12-22T12:41:03.133Z,11.29
2022-12-22T12:42:03.092Z,11.22
2022-12-22T12:43:03.085Z,11.27
2022-12-22T12:44:03.091Z,11.32
2022-12-22T12:45:03.036Z,11.32
2022-12-22T12:46:03.006Z,11.26
2022-12-22T12:47:03.004Z,11.29
2022-12-22T12:48:02.906Z,11.29
2022-12-22T12:49:02.869Z,11.30
2022-12-22T12:50:02.903Z,11.26
2022-12-22T12:51:02.808Z,11.32
2022-12-22T12:52:02.782Z,11.27
2022-12-22T12:53:02.762Z,11.29
2022-12-22T12:54:02.710Z,11.22
2022-12-22T12:55:02.695Z,11.18
2022-12-22T12:56:02.723Z,11.26
2022-12-22T12:57:02.619Z,11.17
2022-12-22T12:58:02.628Z,11.15
2022-12-22T12:59:02.557Z,11.18
2022-12-22T13:00:02.524Z,11.14
2022-12-22T13:01:02.597Z,11.18
2022-12-22T13:02:02.630Z,11.19
2022-12-22T13:03:02.568Z,11.19
2022-12-22T13:04:04.763Z,11.15
2022-12-22T13:05:02.444Z,11.22
2022-12-22T13:06:02.331Z,11.19
2022-12-22T13:07:02.293Z,11.08
2022-12-22T13:08:02.323Z,11.22
2022-12-22T13:09:39.811Z,11.17
2022-12-22T13:10:02.193Z,11.22
2022-12-22T13:11:02.715Z,11.26
2022-12-22T13:12:12.107Z,11.25
2022-12-22T13:13:02.116Z,11.25
2022-12-22T13:14:02.161Z,11.14